createdAt,value
2024-03-07T00:00:40.431Z,65.67
2024-03-07T00:06:05.202Z,65.88
2024-03-07T00:11:10.349Z,65.75
2024-03-07T00:16:14.993Z,65.92
2024-03-07T00:21:19.644Z,65.71
2024-03-07T00:26:24.410Z,65.72
2024-03-07T00:31:30.547Z,65.84
2024-03-07T00:36:35.183Z,65.89
2024-03-07T00:41:39.565Z,65.88
2024-03-07T00:46:44.160Z,65.96
2024-03-07T00:51:48.596Z,65.92
2024-03-07T00:56:53.089Z,65.97
2024-03-07T01:01:57.418Z,65.91
2024-03-07T01:07:02.175Z,65.88
2024-03-07T01:12:07.496Z,65.69
2024-03-07T01:17:12.972Z,65.74
2024-03-07T01:22:17.387Z,65.81
2024-03-07T01:27:21.643Z,65.84
2024-03-07T01:32:26.003Z,65.73
2024-03-07T01:37:30.466Z,65.91
2024-03-07T01:42:34.952Z,65.74
2024-03-07T01:47:39.658Z,65.77
2024-03-07T01:52:44.381Z,65.94
2024-03-07T01:57:48.579Z,65.77
2024-03-07T02:02:54.144Z,66.01
2024-03-07T02:07:58.530Z,65.88
2024-03-07T02:13:03.647Z,66.01
2024-03-07T02:18:10.147Z,65.97
2024-03-07T02:23:16.186Z,65.91
2024-03-07T02:28:20.696Z,65.74
2024-03-07T02:33:25.362Z,65.90
2024-03-07T02:38:29.815Z,66.09
2024-03-07T02:43:34.190Z,65.90
2024-03-07T02:48:38.627Z,66.08
2024-03-07T02:53:43.616Z,65.97
2024-03-07T02:58:48.038Z,65.96
2024-03-07T03:03:52.821Z,65.90
2024-03-07T03:08:57.559Z,66.11
2024-03-07T03:14:01.706Z,66.09
2024-03-07T03:19:06.441Z,65.90
2024-03-07T03:24:11.372Z,65.86
2024-03-07T03:29:17.141Z,65.93
2024-03-07T03:34:21.892Z,66.03
2024-03-07T03:39:27.813Z,65.95
2024-03-07T03:44:32.287Z,66.04
2024-03-07T03:49:36.501Z,65.96
2024-03-07T03:54:40.919Z,66.05
2024-03-07T03:59:45.791Z,66.24
2024-03-07T04:04:50.481Z,66.15
2024-03-07T04:09:58.900Z,65.90
2024-03-07T04:15:04.651Z,66.17
2024-03-07T04:20:11.328Z,65.98
2024-03-07T04:25:16.349Z,66.13
2024-03-07T04:30:20.752Z,65.97
2024-03-07T04:35:25.047Z,66.13
2024-03-07T04:40:29.369Z,65.96
2024-03-07T04:45:33.672Z,66.17
2024-03-07T04:50:38.084Z,66.14
2024-03-07T04:55:42.195Z,66.26
2024-03-07T05:00:46.909Z,66.15
2024-03-07T05:05:51.233Z,66.26
2024-03-07T05:10:55.594Z,66.19
2024-03-07T05:16:00.792Z,66.09
2024-03-07T05:21:29.902Z,66.21
2024-03-07T05:26:41.343Z,66.01
2024-03-07T05:31:47.666Z,66.00
2024-03-07T05:36:52.250Z,66.17
2024-03-07T05:42:00.143Z,66.36
2024-03-07T05:47:05.118Z,66.55
2024-03-07T05:52:09.522Z,66.42
2024-03-07T05:57:14.155Z,66.40
2024-03-07T06:02:18.827Z,66.38
2024-03-07T06:07:23.492Z,66.42
2024-03-07T06:12:28.512Z,66.48
2024-03-07T06:17:33.433Z,66.22
2024-03-07T06:22:37.525Z,66.50
2024-03-07T06:27:49.685Z,66.29
2024-03-07T06:32:54.183Z,66.31
2024-03-07T06:37:58.354Z,66.41
2024-03-07T06:43:04.532Z,66.31
2024-03-07T06:48:09.507Z,66.38
2024-03-07T06:53:14.202Z,66.20
2024-03-07T06:58:18.647Z,66.35
2024-03-07T07:03:23.238Z,66.30
2024-03-07T07:08:30.617Z,66.34
2024-03-07T07:13:35.237Z,66.35
2024-03-07T07:18:40.008Z,66.44
2024-03-07T07:23:44.613Z,66.50
2024-03-07T07:28:49.173Z,66.38
2024-03-07T07:33:53.710Z,66.45
2024-03-07T07:38:59.109Z,66.47
2024-03-07T07:44:04.006Z,66.34
2024-03-07T07:49:08.462Z,66.41
2024-03-07T07:54:12.812Z,66.50
2024-03-07T07:59:17.454Z,66.48
2024-03-07T08:04:22.159Z,66.40
2024-03-07T08:09:27.157Z,66.53
2024-03-07T08:14:31.528Z,66.51
2024-03-07T08:19:36.187Z,66.43
2024-03-07T08:24:40.716Z,66.50
2024-03-07T08:29:45.222Z,66.46
2024-03-07T08:34:49.801Z,66.34
2024-03-07T08:39:54.111Z,66.40
2024-03-07T08:44:58.681Z,66.27
2024-03-07T08:50:06.929Z,66.38
2024-03-07T08:55:14.508Z,66.46
2024-03-07T09:00:24.335Z,66.27
2024-03-07T09:05:28.992Z,66.28
2024-03-07T09:10:33.769Z,66.28
2024-03-07T09:15:38.667Z,66.39
2024-03-07T09:20:43.081Z,66.19
2024-03-07T09:25:47.453Z,66.26
2024-03-07T09:30:54.160Z,66.28
2024-03-07T09:35:59.355Z,66.26
2024-03-07T09:41:03.874Z,66.40
2024-03-07T09:46:08.463Z,66.37
2024-03-07T09:51:14.066Z,66.44
2024-03-07T09:56:19.109Z,66.24
2024-03-07T10:01:24.101Z,66.39
2024-03-07T10:06:30.749Z,66.29
2024-03-07T10:11:35.917Z,66.35
2024-03-07T10:16:42.281Z,66.18
2024-03-07T10:21:46.708Z,66.23
2024-03-07T10:26:50.773Z,66.43
2024-03-07T10:32:04.514Z,66.45
2024-03-07T10:37:10.276Z,66.16
2024-03-07T10:42:15.909Z,66.14
2024-03-07T10:47:20.599Z,66.16
2024-03-07T10:52:30.856Z,66.03
2024-03-07T10:57:41.622Z,66.09
2024-03-07T11:02:47.868Z,66.15
2024-03-07T11:07:52.791Z,66.05
2024-03-07T11:12:58.486Z,65.98
2024-03-07T11:18:02.620Z,66.16
2024-03-07T11:23:21.049Z,66.28
2024-03-07T11:28:32.230Z,66.00
2024-03-07T11:33:40.472Z,66.20
2024-03-07T11:38:50.082Z,66.08
2024-03-07T11:43:56.031Z,66.18
2024-03-07T11:49:01.566Z,65.96
2024-03-07T11:54:05.980Z,65.98
2024-03-07T11:59:14.086Z,65.94
2024-03-07T12:04:18.505Z,66.12
2024-03-07T12:09:25.104Z,66.05
2024-03-07T12:14:29.962Z,66.00
2024-03-07T12:19:34.391Z,66.05
2024-03-07T12:24:38.827Z,66.04
2024-03-07T12:29:44.295Z,66.19
2024-03-07T12:34:48.713Z,66.10
2024-03-07T12:40:02.232Z,65.95
2024-03-07T12:45:07.679Z,66.04
2024-03-07T12:50:12.285Z,65.99
2024-03-07T12:55:19.037Z,66.09
2024-03-07T13:00:23.069Z,66.09
2024-03-07T13:05:27.204Z,65.99
2024-03-07T13:10:31.838Z,65.97
2024-03-07T13:15:38.201Z,66.16
2024-03-07T13:20:44.164Z,66.03
2024-03-07T13:25:49.514Z,66.04
2024-03-07T13:30:55.627Z,66.05
2024-03-07T13:36:02.152Z,65.93
2024-03-07T13:41:06.829Z,66.08
2024-03-07T13:46:12.994Z,65.80
2024-03-07T13:51:17.193Z,65.96
2024-03-07T13:56:41.426Z,65.87
2024-03-07T14:01:54.187Z,65.99
2024-03-07T14:07:34.097Z,65.92
2024-03-07T14:13:05.527Z,65.86
2024-03-07T14:18:36.568Z,65.59
2024-03-07T14:24:05.130Z,65.57
2024-03-07T14:29:19.220Z,65.67
2024-03-07T14:34:25.896Z,65.62
2024-03-07T14:39:30.513Z,65.88
2024-03-07T14:44:35.851Z,65.72
2024-03-07T14:49:40.443Z,65.72
2024-03-07T14:54:44.706Z,65.79
2024-03-07T14:59:49.934Z,65.70
2024-03-07T15:04:55.963Z,65.80
2024-03-07T15:10:00.320Z,65.69
2024-03-07T15:15:11.262Z,65.63
2024-03-07T15:20:23.552Z,65.45
2024-03-07T15:25:34.742Z,65.52
2024-03-07T15:30:39.965Z,65.63
2024-03-07T15:35:44.432Z,65.65
2024-03-07T15:40:48.628Z,65.74
2024-03-07T15:45:53.045Z,65.71
2024-03-07T15:50:58.623Z,65.81
2024-03-07T15:56:02.852Z,65.66
2024-03-07T16:01:07.538Z,65.83
2024-03-07T16:06:11.812Z,65.75
2024-03-07T16:11:20.001Z,65.69
2024-03-07T16:16:24.231Z,65.70
2024-03-07T16:21:28.847Z,65.74
2024-03-07T16:26:35.901Z,65.81
2024-03-07T16:31:40.387Z,66.03
2024-03-07T16:36:45.580Z,65.86
2024-03-07T16:41:50.199Z,65.99
2024-03-07T16:46:54.869Z,65.94
2024-03-07T16:51:59.095Z,66.01
2024-03-07T16:57:05.361Z,65.99
2024-03-07T17:02:10.790Z,65.95
2024-03-07T17:07:14.968Z,66.04
2024-03-07T17:12:19.322Z,66.08
2024-03-07T17:17:24.269Z,65.79
2024-03-07T17:22:28.378Z,66.02
2024-03-07T17:27:32.609Z,65.95
2024-03-07T17:32:39.193Z,66.02
2024-03-07T17:37:44.978Z,66.01
2024-03-07T17:42:51.017Z,66.18
2024-03-07T17:47:56.463Z,66.16
2024-03-07T17:53:01.739Z,65.96
2024-03-07T17:58:06.301Z,66.18
2024-03-07T18:03:10.682Z,66.28
2024-03-07T18:08:33.808Z,66.16
2024-03-07T18:13:42.334Z,66.31
2024-03-07T18:18:47.700Z,66.18
2024-03-07T18:23:52.077Z,66.23
2024-03-07T18:28:56.256Z,66.30
2024-03-07T18:34:00.791Z,66.31
2024-03-07T18:39:15.765Z,66.27
2024-03-07T18:44:20.215Z,66.42
2024-03-07T18:49:24.562Z,66.21
2024-03-07T18:54:28.666Z,66.45
2024-03-07T18:59:37.652Z,66.35
2024-03-07T19:04:45.029Z,66.44
2024-03-07T19:09:49.969Z,66.20
2024-03-07T19:14:54.647Z,66.43
2024-03-07T19:19:58.977Z,66.59
2024-03-07T19:25:04.785Z,66.26
2024-03-07T19:30:17.332Z,66.45
2024-03-07T19:35:21.607Z,66.41
2024-03-07T19:40:25.696Z,66.46
2024-03-07T19:45:29.829Z,66.53
2024-03-07T19:50:34.383Z,66.47
2024-03-07T19:55:38.591Z,66.44
2024-03-07T20:00:45.321Z,66.58
2024-03-07T20:05:49.955Z,66.73
2024-03-07T20:10:54.075Z,66.70
2024-03-07T20:16:01.723Z,66.63
2024-03-07T20:21:07.284Z,66.62
2024-03-07T20:26:11.408Z,66.48
2024-03-07T20:31:16.748Z,66.52
2024-03-07T20:36:21.210Z,66.61
2024-03-07T20:41:25.412Z,66.51
2024-03-07T20:46:31.257Z,66.66
2024-03-07T20:51:38.037Z,66.63
2024-03-07T20:56:49.719Z,66.81
2024-03-07T21:01:54.018Z,66.71
2024-03-07T21:06:58.143Z,66.68
2024-03-07T21:12:02.851Z,66.68
2024-03-07T21:17:12.001Z,66.68
2024-03-07T21:22:17.313Z,66.64
2024-03-07T21:27:21.601Z,66.63
2024-03-07T21:32:25.883Z,66.61
2024-03-07T21:37:31.901Z,66.48
2024-03-07T21:42:36.426Z,66.53
2024-03-07T21:47:41.919Z,66.79
2024-03-07T21:52:47.045Z,66.83
2024-03-07T21:57:55.315Z,66.79
2024-03-07T22:03:01.769Z,66.72
2024-03-07T22:08:08.168Z,66.72
2024-03-07T22:13:12.090Z,66.71
2024-03-07T22:18:16.421Z,66.66
2024-03-07T22:23:21.751Z,66.74
2024-03-07T22:28:26.079Z,66.62
2024-03-07T22:33:30.694Z,66.72
2024-03-07T22:38:34.969Z,66.66
2024-03-07T22:43:39.215Z,66.79
2024-03-07T22:48:43.690Z,66.70
2024-03-07T22:53:48.387Z,66.89
2024-03-07T22:58:53.420Z,66.79
2024-03-07T23:03:57.567Z,66.76
2024-03-07T23:09:02.625Z,66.85
2024-03-07T23:14:06.926Z,66.88
2024-03-07T23:19:12.862Z,66.91
2024-03-07T23:24:17.020Z,66.75
2024-03-07T23:29:21.368Z,66.79
2024-03-07T23:34:25.803Z,66.72
2024-03-07T23:39:30.661Z,66.81
2024-03-07T23:44:34.752Z,66.84
2024-03-07T23:49:39.032Z,66.68
2024-03-07T23:54:43.843Z,66.73
2024-03-07T23:59:49.419Z,66.93
